Terminal Aerodrome Forecast
Issued by NWS Melbourne, FL

Home | Current Version | Previous Version | Text Only | Print | Product List | Glossary On
Versions: 1 2 3 4 5 6 7 8 9 10 11 12 13 14 15 16 17 18 19 20 21
693
FTUS42 KMLB 051736
TAFVRB
TAF
KVRB 051736Z 0518/0618 36016G25KT P6SM FEW050
     FM060000 02011G18KT P6SM BKN050
     FM060600 05009KT P6SM BKN050
     FM061300 04008KT P6SM BKN040=

USA.gov is the U.S. government's official web portal to all federal, state and local government web resources and services.